sensor_id;sensor_type;location;lat;lon;timestamp;pressure;altitude;pressure_sealevel;temperature;humidity
34031;BME280;20319;28.466;-16.274;2023-12-14T00:00:29;95879.88;;;15.82;100.00
34031;BME280;20319;28.466;-16.274;2023-12-14T00:02:56;95704.13;;;14.78;100.00
34031;BME280;20319;28.466;-16.274;2023-12-14T00:05:21;95927.94;;;16.19;100.00
34031;BME280;20319;28.466;-16.274;2023-12-14T00:07:47;95744.91;;;15.10;100.00
34031;BME280;20319;28.466;-16.274;2023-12-14T00:10:12;95920.16;;;16.12;100.00
34031;BME280;20319;28.466;-16.274;2023-12-14T00:12:38;95930.66;;;16.14;100.00
34031;BME280;20319;28.466;-16.274;2023-12-14T00:15:05;95914.41;;;16.19;100.00
34031;BME280;20319;28.466;-16.274;2023-12-14T00:17:31;95885.19;;;15.92;100.00
34031;BME280;20319;28.466;-16.274;2023-12-14T00:19:56;95660.56;;;14.66;100.00
34031;BME280;20319;28.466;-16.274;2023-12-14T00:22:22;95950.66;;;16.47;100.00
34031;BME280;20319;28.466;-16.274;2023-12-14T00:24:47;95895.00;;;16.12;100.00
34031;BME280;20319;28.466;-16.274;2023-12-14T00:27:13;95812.44;;;15.72;100.00
34031;BME280;20319;28.466;-16.274;2023-12-14T00:29:38;95764.94;;;15.43;100.00
34031;BME280;20319;28.466;-16.274;2023-12-14T00:32:04;95941.41;;;16.53;100.00
34031;BME280;20319;28.466;-16.274;2023-12-14T00:34:30;95898.91;;;16.29;100.00
34031;BME280;20319;28.466;-16.274;2023-12-14T00:36:56;95709.22;;;15.18;100.00
34031;BME280;20319;28.466;-16.274;2023-12-14T00:39:21;95765.44;;;15.45;100.00
34031;BME280;20319;28.466;-16.274;2023-12-14T00:41:47;95669.72;;;14.99;100.00
34031;BME280;20319;28.466;-16.274;2023-12-14T00:44:12;95935.34;;;16.66;100.00
34031;BME280;20319;28.466;-16.274;2023-12-14T00:46:38;95665.16;;;14.99;100.00
34031;BME280;20319;28.466;-16.274;2023-12-14T00:49:03;95787.25;;;15.82;100.00
34031;BME280;20319;28.466;-16.274;2023-12-14T00:51:29;95787.31;;;15.72;100.00
34031;BME280;20319;28.466;-16.274;2023-12-14T00:53:55;95761.53;;;15.56;100.00
34031;BME280;20319;28.466;-16.274;2023-12-14T00:56:20;95767.53;;;15.53;100.00
34031;BME280;20319;28.466;-16.274;2023-12-14T00:58:46;95814.50;;;15.85;100.00
34031;BME280;20319;28.466;-16.274;2023-12-14T01:01:12;95879.03;;;16.15;100.00
34031;BME280;20319;28.466;-16.274;2023-12-14T01:03:37;95665.16;;;14.99;100.00
34031;BME280;20319;28.466;-16.274;2023-12-14T01:06:03;95864.75;;;16.10;100.00
34031;BME280;20319;28.466;-16.274;2023-12-14T01:08:29;95885.91;;;16.32;100.00
34031;BME280;20319;28.466;-16.274;2023-12-14T01:10:54;95863.84;;;16.19;100.00
34031;BME280;20319;28.466;-16.274;2023-12-14T01:13:20;95805.81;;;15.88;100.00
34031;BME280;20319;28.466;-16.274;2023-12-14T01:15:45;95705.06;;;15.31;100.00
34031;BME280;20319;28.466;-16.274;2023-12-14T01:18:11;95827.06;;;16.00;100.00
34031;BME280;20319;28.466;-16.274;2023-12-14T01:20:38;95724.72;;;15.41;100.00
34031;BME280;20319;28.466;-16.274;2023-12-14T01:23:03;95860.88;;;16.21;100.00
34031;BME280;20319;28.466;-16.274;2023-12-14T01:25:29;95702.13;;;15.27;100.00
34031;BME280;20319;28.466;-16.274;2023-12-14T01:27:55;95806.22;;;16.00;100.00
34031;BME280;20319;28.466;-16.274;2023-12-14T01:30:20;95517.44;;;13.90;100.00
34031;BME280;20319;28.466;-16.274;2023-12-14T01:32:46;95639.56;;;14.97;100.00
34031;BME280;20319;28.466;-16.274;2023-12-14T01:35:11;95631.19;;;14.98;100.00
34031;BME280;20319;28.466;-16.274;2023-12-14T01:37:38;95852.97;;;16.29;100.00
34031;BME280;20319;28.466;-16.274;2023-12-14T01:40:04;95857.53;;;16.29;100.00
34031;BME280;20319;28.466;-16.274;2023-12-14T01:42:30;95847.50;;;16.35;100.00
34031;BME280;20319;28.466;-16.274;2023-12-14T01:44:55;95670.53;;;15.33;100.00
34031;BME280;20319;28.466;-16.274;2023-12-14T01:47:21;95879.47;;;16.56;100.00
34031;BME280;20319;28.466;-16.274;2023-12-14T01:49:46;95828.22;;;16.17;100.00
34031;BME280;20319;28.466;-16.274;2023-12-14T01:52:12;95651.56;;;15.14;100.00
34031;BME280;20319;28.466;-16.274;2023-12-14T01:54:38;95631.25;;;14.88;100.00
34031;BME280;20319;28.466;-16.274;2023-12-14T01:57:03;95783.16;;;15.84;100.00
34031;BME280;20319;28.466;-16.274;2023-12-14T01:59:29;95900.63;;;16.49;100.00
34031;BME280;20319;28.466;-16.274;2023-12-14T02:01:56;95645.69;;;15.02;100.00
34031;BME280;20319;28.466;-16.274;2023-12-14T02:04:23;95741.91;;;15.50;100.00
34031;BME280;20319;28.466;-16.274;2023-12-14T02:06:50;95581.94;;;14.54;100.00
34031;BME280;20319;28.466;-16.274;2023-12-14T02:09:15;95685.00;;;15.13;100.00
34031;BME280;20319;28.466;-16.274;2023-12-14T02:11:41;95793.66;;;15.86;100.00
34031;BME280;20319;28.466;-16.274;2023-12-14T02:14:09;95813.63;;;15.90;100.00
34031;BME280;20319;28.466;-16.274;2023-12-14T02:16:35;95860.38;;;16.19;100.00
34031;BME280;20319;28.466;-16.274;2023-12-14T02:19:04;95854.72;;;16.15;100.00
34031;BME280;20319;28.466;-16.274;2023-12-14T02:21:29;95838.66;;;16.00;100.00
34031;BME280;20319;28.466;-16.274;2023-12-14T02:23:55;95839.13;;;16.07;100.00
34031;BME280;20319;28.466;-16.274;2023-12-14T02:26:20;95825.09;;;16.05;100.00
34031;BME280;20319;28.466;-16.274;2023-12-14T02:28:46;95763.56;;;15.74;100.00
34031;BME280;20319;28.466;-16.274;2023-12-14T02:31:12;95692.19;;;15.23;100.00
34031;BME280;20319;28.466;-16.274;2023-12-14T02:33:37;95757.94;;;15.65;100.00
34031;BME280;20319;28.466;-16.274;2023-12-14T02:36:04;95775.75;;;15.71;100.00
34031;BME280;20319;28.466;-16.274;2023-12-14T02:38:29;95556.28;;;14.28;100.00
34031;BME280;20319;28.466;-16.274;2023-12-14T02:40:55;95850.56;;;15.99;100.00
34031;BME280;20319;28.466;-16.274;2023-12-14T02:43:21;95863.09;;;15.85;100.00
34031;BME280;20319;28.466;-16.274;2023-12-14T02:45:48;95880.31;;;15.94;100.00
34031;BME280;20319;28.466;-16.274;2023-12-14T02:48:14;95726.03;;;15.10;100.00
34031;BME280;20319;28.466;-16.274;2023-12-14T02:50:39;95956.22;;;16.26;100.00
34031;BME280;20319;28.466;-16.274;2023-12-14T02:53:05;95924.47;;;16.08;100.00
34031;BME280;20319;28.466;-16.274;2023-12-14T02:55:31;95918.47;;;16.16;100.00
34031;BME280;20319;28.466;-16.274;2023-12-14T02:57:56;95790.06;;;15.33;100.00
34031;BME280;20319;28.466;-16.274;2023-12-14T03:00:22;95914.75;;;16.12;100.00
34031;BME280;20319;28.466;-16.274;2023-12-14T03:02:48;95933.03;;;16.20;100.00
34031;BME280;20319;28.466;-16.274;2023-12-14T03:05:13;95898.97;;;15.91;100.00
34031;BME280;20319;28.466;-16.274;2023-12-14T03:07:39;95866.75;;;15.66;100.00
34031;BME280;20319;28.466;-16.274;2023-12-14T03:10:05;95736.97;;;14.90;100.00
34031;BME280;20319;28.466;-16.274;2023-12-14T03:12:31;95930.50;;;16.00;100.00
34031;BME280;20319;28.466;-16.274;2023-12-14T03:14:56;95690.56;;;14.49;100.00
34031;BME280;20319;28.466;-16.274;2023-12-14T03:17:22;95939.63;;;16.09;100.00
34031;BME280;20319;28.466;-16.274;2023-12-14T03:19:47;95821.50;;;15.14;100.00
34031;BME280;20319;28.466;-16.274;2023-12-14T03:22:13;95751.06;;;14.77;100.00
34031;BME280;20319;28.466;-16.274;2023-12-14T03:24:39;95928.56;;;15.72;100.00
34031;BME280;20319;28.466;-16.274;2023-12-14T03:27:05;95729.56;;;14.62;100.00
34031;BME280;20319;28.466;-16.274;2023-12-14T03:29:30;95932.25;;;15.81;100.00
34031;BME280;20319;28.466;-16.274;2023-12-14T03:31:57;95933.63;;;15.79;100.00
34031;BME280;20319;28.466;-16.274;2023-12-14T03:34:23;95700.13;;;14.22;100.00
34031;BME280;20319;28.466;-16.274;2023-12-14T03:36:49;95785.03;;;14.73;100.00
34031;BME280;20319;28.466;-16.274;2023-12-14T03:39:14;95958.72;;;15.41;100.00
34031;BME280;20319;28.466;-16.274;2023-12-14T03:41:42;95913.03;;;15.49;100.00
34031;BME280;20319;28.466;-16.274;2023-12-14T03:44:07;95927.63;;;15.48;100.00
34031;BME280;20319;28.466;-16.274;2023-12-14T03:46:33;95860.34;;;15.08;100.00
34031;BME280;20319;28.466;-16.274;2023-12-14T03:49:00;95965.91;;;15.60;100.00
34031;BME280;20319;28.466;-16.274;2023-12-14T03:51:26;95706.97;;;13.94;100.00
34031;BME280;20319;28.466;-16.274;2023-12-14T03:53:51;95759.88;;;14.39;100.00
34031;BME280;20319;28.466;-16.274;2023-12-14T03:56:17;95899.09;;;15.27;100.00
34031;BME280;20319;28.466;-16.274;2023-12-14T03:58:43;95848.09;;;14.87;100.00
34031;BME280;20319;28.466;-16.274;2023-12-14T04:01:16;95943.78;;;15.53;100.00
34031;BME280;20319;28.466;-16.274;2023-12-14T04:03:42;95610.22;;;13.44;100.00
34031;BME280;20319;28.466;-16.274;2023-12-14T04:06:07;95768.53;;;14.36;100.00
34031;BME280;20319;28.466;-16.274;2023-12-14T04:08:33;95749.69;;;14.26;100.00
34031;BME280;20319;28.466;-16.274;2023-12-14T04:10:58;95627.97;;;13.55;100.00
34031;BME280;20319;28.466;-16.274;2023-12-14T04:13:24;95732.97;;;14.19;100.00
34031;BME280;20319;28.466;-16.274;2023-12-14T04:15:49;95813.47;;;14.50;100.00
34031;BME280;20319;28.466;-16.274;2023-12-14T04:18:15;95815.31;;;14.55;100.00
34031;BME280;20319;28.466;-16.274;2023-12-14T04:20:40;95940.09;;;15.29;100.00
34031;BME280;20319;28.466;-16.274;2023-12-14T04:23:06;95948.47;;;15.33;100.00
34031;BME280;20319;28.466;-16.274;2023-12-14T04:25:32;95893.66;;;14.89;100.00
34031;BME280;20319;28.466;-16.274;2023-12-14T04:27:57;95895.44;;;15.03;100.00
34031;BME280;20319;28.466;-16.274;2023-12-14T04:30:23;95786.31;;;14.22;100.00
34031;BME280;20319;28.466;-16.274;2023-12-14T04:32:49;95935.88;;;15.13;100.00
34031;BME280;20319;28.466;-16.274;2023-12-14T04:35:14;95932.41;;;15.08;100.00
34031;BME280;20319;28.466;-16.274;2023-12-14T04:37:40;95927.28;;;15.06;100.00
34031;BME280;20319;28.466;-16.274;2023-12-14T04:40:06;95763.72;;;14.13;100.00
34031;BME280;20319;28.466;-16.274;2023-12-14T04:42:32;95899.31;;;14.87;100.00
34031;BME280;20319;28.466;-16.274;2023-12-14T04:44:58;95637.66;;;13.46;100.00
34031;BME280;20319;28.466;-16.274;2023-12-14T04:47:24;95912.69;;;15.07;100.00
34031;BME280;20319;28.466;-16.274;2023-12-14T04:49:49;95625.31;;;13.40;100.00
34031;BME280;20319;28.466;-16.274;2023-12-14T04:52:15;95888.47;;;14.97;100.00
34031;BME280;20319;28.466;-16.274;2023-12-14T04:54:41;95632.56;;;13.45;100.00
34031;BME280;20319;28.466;-16.274;2023-12-14T04:57:07;95730.09;;;14.05;100.00
34031;BME280;20319;28.466;-16.274;2023-12-14T04:59:33;95805.91;;;14.47;100.00
34031;BME280;20319;28.466;-16.274;2023-12-14T05:01:58;95815.59;;;14.53;100.00
34031;BME280;20319;28.466;-16.274;2023-12-14T05:04:24;95769.38;;;14.26;100.00
34031;BME280;20319;28.466;-16.274;2023-12-14T05:06:49;95842.75;;;14.72;100.00
34031;BME280;20319;28.466;-16.274;2023-12-14T05:09:15;95923.91;;;15.29;100.00
34031;BME280;20319;28.466;-16.274;2023-12-14T05:11:40;95706.94;;;13.99;100.00
34031;BME280;20319;28.466;-16.274;2023-12-14T05:14:06;95877.09;;;15.05;100.00
34031;BME280;20319;28.466;-16.274;2023-12-14T05:16:32;95919.84;;;15.32;100.00
34031;BME280;20319;28.466;-16.274;2023-12-14T05:18:57;95753.41;;;14.35;100.00
34031;BME280;20319;28.466;-16.274;2023-12-14T05:21:23;95868.22;;;15.05;100.00
34031;BME280;20319;28.466;-16.274;2023-12-14T05:23:49;95709.06;;;14.12;100.00
34031;BME280;20319;28.466;-16.274;2023-12-14T05:26:14;95882.16;;;15.17;100.00
34031;BME280;20319;28.466;-16.274;2023-12-14T05:28:40;95930.31;;;15.48;100.00
34031;BME280;20319;28.466;-16.274;2023-12-14T05:31:06;95718.19;;;14.26;100.00
34031;BME280;20319;28.466;-16.274;2023-12-14T05:33:32;95818.16;;;14.83;100.00
34031;BME280;20319;28.466;-16.274;2023-12-14T15:21:49;95884.34;;;20.11;100.00
34031;BME280;20319;28.466;-16.274;2023-12-14T15:24:15;95762.53;;;19.47;100.00
34031;BME280;20319;28.466;-16.274;2023-12-14T15:26:41;95875.38;;;20.10;100.00
34031;BME280;20319;28.466;-16.274;2023-12-14T15:29:07;95906.69;;;20.21;100.00
34031;BME280;20319;28.466;-16.274;2023-12-14T15:31:33;95762.47;;;19.38;100.00
34031;BME280;20319;28.466;-16.274;2023-12-14T15:33:59;95538.84;;;17.97;100.00
34031;BME280;20319;28.466;-16.274;2023-12-14T15:36:27;95896.59;;;20.22;100.00
34031;BME280;20319;28.466;-16.274;2023-12-14T15:38:52;95896.69;;;19.95;100.00
34031;BME280;20319;28.466;-16.274;2023-12-14T15:41:18;95758.13;;;19.01;99.96
34031;BME280;20319;28.466;-16.274;2023-12-14T15:43:44;95798.63;;;19.11;100.00
34031;BME280;20319;28.466;-16.274;2023-12-14T15:46:10;95754.28;;;18.67;100.00
34031;BME280;20319;28.466;-16.274;2023-12-14T15:48:36;95579.50;;;17.56;100.00
34031;BME280;20319;28.466;-16.274;2023-12-14T15:51:05;95901.69;;;19.44;100.00
34031;BME280;20319;28.466;-16.274;2023-12-14T15:53:31;95787.22;;;18.60;100.00
34031;BME280;20319;28.466;-16.274;2023-12-14T15:55:58;95787.13;;;18.38;100.00
34031;BME280;20319;28.466;-16.274;2023-12-14T15:58:23;95869.69;;;18.86;100.00
34031;BME280;20319;28.466;-16.274;2023-12-14T16:00:49;95731.44;;;18.00;100.00
34031;BME280;20319;28.466;-16.274;2023-12-14T16:03:14;95849.72;;;18.69;100.00
34031;BME280;20319;28.466;-16.274;2023-12-14T16:05:40;95892.53;;;18.85;100.00
34031;BME280;20319;28.466;-16.274;2023-12-14T16:08:06;95687.25;;;17.59;100.00
34031;BME280;20319;28.466;-16.274;2023-12-14T16:10:33;95863.19;;;18.60;100.00
34031;BME280;20319;28.466;-16.274;2023-12-14T16:12:59;95704.25;;;17.46;100.00
34031;BME280;20319;28.466;-16.274;2023-12-14T16:15:24;95921.19;;;18.91;100.00
34031;BME280;20319;28.466;-16.274;2023-12-14T16:17:50;95809.75;;;18.15;100.00
34031;BME280;20319;28.466;-16.274;2023-12-14T16:20:16;95762.72;;;17.93;100.00
34031;BME280;20319;28.466;-16.274;2023-12-14T16:22:42;95781.06;;;18.14;100.00
34031;BME280;20319;28.466;-16.274;2023-12-14T16:25:08;95829.31;;;18.44;100.00
34031;BME280;20319;28.466;-16.274;2023-12-14T16:27:35;95629.50;;;17.31;100.00
34031;BME280;20319;28.466;-16.274;2023-12-14T16:30:01;95967.16;;;19.42;100.00
34031;BME280;20319;28.466;-16.274;2023-12-14T16:32:26;95867.28;;;18.85;100.00
34031;BME280;20319;28.466;-16.274;2023-12-14T16:34:52;95884.59;;;19.16;100.00
34031;BME280;20319;28.466;-16.274;2023-12-14T16:37:18;95878.13;;;19.12;100.00
34031;BME280;20319;28.466;-16.274;2023-12-14T16:39:44;95766.50;;;18.37;99.93
34031;BME280;20319;28.466;-16.274;2023-12-14T16:42:10;95821.16;;;18.85;99.61
34031;BME280;20319;28.466;-16.274;2023-12-14T16:44:36;95740.69;;;18.26;98.47
34031;BME280;20319;28.466;-16.274;2023-12-14T16:47:04;95955.16;;;19.57;98.24
34031;BME280;20319;28.466;-16.274;2023-12-14T16:49:32;95882.78;;;19.11;98.38
34031;BME280;20319;28.466;-16.274;2023-12-14T16:51:57;95838.28;;;18.72;97.29
34031;BME280;20319;28.466;-16.274;2023-12-14T16:54:23;95834.97;;;18.75;97.21
34031;BME280;20319;28.466;-16.274;2023-12-14T16:56:49;95806.03;;;18.43;96.53
34031;BME280;20319;28.466;-16.274;2023-12-14T16:59:14;95676.34;;;17.78;96.03
34031;BME280;20319;28.466;-16.274;2023-12-14T17:01:40;95895.75;;;19.14;96.27
34031;BME280;20319;28.466;-16.274;2023-12-14T17:04:07;96000.53;;;19.70;95.56
34031;BME280;20319;28.466;-16.274;2023-12-14T17:06:32;95889.22;;;18.88;95.24
34031;BME280;20319;28.466;-16.274;2023-12-14T17:08:58;95803.56;;;18.28;95.29
34031;BME280;20319;28.466;-16.274;2023-12-14T17:11:23;95944.94;;;19.13;95.37
34031;BME280;20319;28.466;-16.274;2023-12-14T17:13:49;95989.16;;;19.13;95.19
34031;BME280;20319;28.466;-16.274;2023-12-14T17:16:16;95945.91;;;18.90;95.63
34031;BME280;20319;28.466;-16.274;2023-12-14T17:18:43;96023.38;;;19.28;95.53
34031;BME280;20319;28.466;-16.274;2023-12-14T17:21:25;96035.28;;;19.32;95.91
34031;BME280;20319;28.466;-16.274;2023-12-14T17:23:52;96043.72;;;19.31;96.07
34031;BME280;20319;28.466;-16.274;2023-12-14T17:26:18;95836.41;;;17.95;95.83
34031;BME280;20319;28.466;-16.274;2023-12-14T17:28:45;95956.94;;;18.66;96.15
34031;BME280;20319;28.466;-16.274;2023-12-14T17:31:12;96056.63;;;19.20;96.13
34031;BME280;20319;28.466;-16.274;2023-12-14T17:33:37;95834.13;;;17.69;95.63
34031;BME280;20319;28.466;-16.274;2023-12-14T17:36:04;95812.56;;;17.46;95.87
34031;BME280;20319;28.466;-16.274;2023-12-14T17:38:30;95728.44;;;16.87;95.92
34031;BME280;20319;28.466;-16.274;2023-12-14T17:40:55;95807.34;;;17.31;96.77
34031;BME280;20319;28.466;-16.274;2023-12-14T17:43:23;95978.78;;;18.24;97.26
34031;BME280;20319;28.466;-16.274;2023-12-14T17:45:49;95858.41;;;17.37;97.56
34031;BME280;20319;28.466;-16.274;2023-12-14T17:48:15;95912.44;;;17.66;97.92
34031;BME280;20319;28.466;-16.274;2023-12-14T17:50:40;95977.53;;;17.98;98.25
34031;BME280;20319;28.466;-16.274;2023-12-14T17:53:06;95918.59;;;17.53;98.79
34031;BME280;20319;28.466;-16.274;2023-12-14T17:55:32;95933.69;;;17.59;98.91
34031;BME280;20319;28.466;-16.274;2023-12-14T17:57:57;95943.06;;;17.48;99.10
34031;BME280;20319;28.466;-16.274;2023-12-14T18:00:23;95954.16;;;17.46;99.70
34031;BME280;20319;28.466;-16.274;2023-12-14T18:02:49;96039.34;;;17.96;99.88
34031;BME280;20319;28.466;-16.274;2023-12-14T18:05:15;95910.44;;;16.92;100.00
34031;BME280;20319;28.466;-16.274;2023-12-14T18:07:40;96000.19;;;17.46;100.00
34031;BME280;20319;28.466;-16.274;2023-12-14T18:10:06;95949.06;;;16.98;100.00
34031;BME280;20319;28.466;-16.274;2023-12-14T18:12:33;96019.81;;;17.33;100.00
34031;BME280;20319;28.466;-16.274;2023-12-14T18:14:59;95779.66;;;15.84;100.00
34031;BME280;20319;28.466;-16.274;2023-12-14T18:17:25;95908.75;;;16.44;100.00
34031;BME280;20319;28.466;-16.274;2023-12-14T18:19:51;96055.38;;;17.27;100.00
34031;BME280;20319;28.466;-16.274;2023-12-14T18:22:21;95846.66;;;15.82;100.00
34031;BME280;20319;28.466;-16.274;2023-12-14T18:24:47;95726.56;;;15.12;100.00
34031;BME280;20319;28.466;-16.274;2023-12-14T18:27:12;96057.47;;;17.06;100.00
34031;BME280;20319;28.466;-16.274;2023-12-14T18:29:38;95988.44;;;16.57;100.00
34031;BME280;20319;28.466;-16.274;2023-12-14T18:32:04;96016.00;;;16.59;100.00
34031;BME280;20319;28.466;-16.274;2023-12-14T18:34:30;95885.91;;;15.69;100.00
34031;BME280;20319;28.466;-16.274;2023-12-14T18:36:55;95971.06;;;16.29;100.00
34031;BME280;20319;28.466;-16.274;2023-12-14T18:39:22;96015.97;;;16.25;100.00
34031;BME280;20319;28.466;-16.274;2023-12-14T18:41:48;96029.28;;;16.55;100.00
34031;BME280;20319;28.466;-16.274;2023-12-14T18:44:14;96058.13;;;16.65;100.00
34031;BME280;20319;28.466;-16.274;2023-12-14T18:46:39;96008.81;;;16.39;100.00
34031;BME280;20319;28.466;-16.274;2023-12-14T18:49:05;95966.72;;;15.99;100.00
34031;BME280;20319;28.466;-16.274;2023-12-14T18:51:31;95996.38;;;16.09;100.00
34031;BME280;20319;28.466;-16.274;2023-12-14T18:53:56;95980.56;;;15.88;100.00
34031;BME280;20319;28.466;-16.274;2023-12-14T18:56:22;95997.06;;;15.81;100.00
34031;BME280;20319;28.466;-16.274;2023-12-14T18:58:48;95963.50;;;15.54;100.00
34031;BME280;20319;28.466;-16.274;2023-12-14T19:01:13;96068.31;;;16.34;100.00
34031;BME280;20319;28.466;-16.274;2023-12-14T19:03:39;95798.63;;;14.48;100.00
34031;BME280;20319;28.466;-16.274;2023-12-14T19:06:08;96082.44;;;16.26;100.00
34031;BME280;20319;28.466;-16.274;2023-12-14T19:08:35;95814.53;;;14.44;100.00
34031;BME280;20319;28.466;-16.274;2023-12-14T19:11:01;95701.88;;;13.83;100.00
34031;BME280;20319;28.466;-16.274;2023-12-14T19:13:26;95931.75;;;15.26;100.00
34031;BME280;20319;28.466;-16.274;2023-12-14T19:15:52;96064.53;;;15.91;100.00
34031;BME280;20319;28.466;-16.274;2023-12-14T19:18:18;95769.63;;;14.15;100.00
34031;BME280;20319;28.466;-16.274;2023-12-14T19:20:43;95989.97;;;15.47;100.00
34031;BME280;20319;28.466;-16.274;2023-12-14T19:23:09;96051.94;;;15.77;100.00
34031;BME280;20319;28.466;-16.274;2023-12-14T19:25:34;96046.28;;;15.68;100.00
34031;BME280;20319;28.466;-16.274;2023-12-14T19:28:03;96072.69;;;15.86;100.00
34031;BME280;20319;28.466;-16.274;2023-12-14T19:30:28;96119.59;;;16.00;100.00
34031;BME280;20319;28.466;-16.274;2023-12-14T19:32:54;95826.19;;;14.20;100.00
34031;BME280;20319;28.466;-16.274;2023-12-14T19:35:20;96109.94;;;15.84;100.00
34031;BME280;20319;28.466;-16.274;2023-12-14T19:37:45;95961.63;;;14.86;100.00
34031;BME280;20319;28.466;-16.274;2023-12-14T19:40:15;95920.66;;;14.73;100.00
34031;BME280;20319;28.466;-16.274;2023-12-14T19:42:41;96055.06;;;15.30;100.00
34031;BME280;20319;28.466;-16.274;2023-12-14T19:45:07;95839.13;;;14.13;100.00
34031;BME280;20319;28.466;-16.274;2023-12-14T19:47:33;96110.50;;;15.81;100.00
34031;BME280;20319;28.466;-16.274;2023-12-14T19:50:00;96076.34;;;15.57;100.00
34031;BME280;20319;28.466;-16.274;2023-12-14T19:52:26;96092.78;;;15.60;100.00
34031;BME280;20319;28.466;-16.274;2023-12-14T19:54:52;95881.97;;;14.29;100.00
34031;BME280;20319;28.466;-16.274;2023-12-14T19:57:18;96131.63;;;15.74;100.00
34031;BME280;20319;28.466;-16.274;2023-12-14T19:59:43;95989.91;;;14.83;100.00
34031;BME280;20319;28.466;-16.274;2023-12-14T20:02:12;96073.19;;;15.15;100.00
34031;BME280;20319;28.466;-16.274;2023-12-14T20:04:38;96017.97;;;14.87;100.00
34031;BME280;20319;28.466;-16.274;2023-12-14T20:07:03;96027.09;;;14.91;100.00
34031;BME280;20319;28.466;-16.274;2023-12-14T20:09:29;96134.91;;;15.61;100.00
34031;BME280;20319;28.466;-16.274;2023-12-14T20:11:54;96104.97;;;15.48;100.00
34031;BME280;20319;28.466;-16.274;2023-12-14T20:14:20;96122.78;;;15.49;100.00
34031;BME280;20319;28.466;-16.274;2023-12-14T20:16:46;95997.50;;;14.61;100.00
34031;BME280;20319;28.466;-16.274;2023-12-14T20:19:15;95964.66;;;14.44;100.00
34031;BME280;20319;28.466;-16.274;2023-12-14T20:21:41;96086.94;;;15.08;100.00
34031;BME280;20319;28.466;-16.274;2023-12-14T20:24:07;95915.63;;;14.07;100.00
34031;BME280;20319;28.466;-16.274;2023-12-14T20:26:33;96148.97;;;15.48;100.00
34031;BME280;20319;28.466;-16.274;2023-12-14T20:28:59;96154.38;;;15.48;100.00
34031;BME280;20319;28.466;-16.274;2023-12-14T20:31:25;95845.94;;;13.55;100.00
34031;BME280;20319;28.466;-16.274;2023-12-14T20:33:50;96065.97;;;14.80;100.00
34031;BME280;20319;28.466;-16.274;2023-12-14T20:36:17;96010.19;;;14.50;100.00
34031;BME280;20319;28.466;-16.274;2023-12-14T20:38:43;96082.13;;;14.95;100.00
34031;BME280;20319;28.466;-16.274;2023-12-14T20:41:09;95897.34;;;13.79;100.00
34031;BME280;20319;28.466;-16.274;2023-12-14T20:43:35;95994.84;;;14.36;100.00
34031;BME280;20319;28.466;-16.274;2023-12-14T20:46:03;96021.78;;;14.56;100.00
34031;BME280;20319;28.466;-16.274;2023-12-14T20:48:29;96003.44;;;14.38;100.00
34031;BME280;20319;28.466;-16.274;2023-12-14T20:50:55;95921.03;;;13.87;100.00
34031;BME280;20319;28.466;-16.274;2023-12-14T20:53:20;96020.41;;;14.28;100.00
34031;BME280;20319;28.466;-16.274;2023-12-14T20:55:46;95937.97;;;13.92;100.00
34031;BME280;20319;28.466;-16.274;2023-12-14T20:58:11;95870.94;;;13.56;100.00
34031;BME280;20319;28.466;-16.274;2023-12-14T21:00:38;96147.91;;;15.24;100.00
34031;BME280;20319;28.466;-16.274;2023-12-14T21:03:04;95934.19;;;13.98;100.00
34031;BME280;20319;28.466;-16.274;2023-12-14T21:05:29;96041.19;;;14.68;100.00
34031;BME280;20319;28.466;-16.274;2023-12-14T21:07:55;95930.72;;;13.98;100.00
34031;BME280;20319;28.466;-16.274;2023-12-14T21:10:21;95966.00;;;14.21;100.00
34031;BME280;20319;28.466;-16.274;2023-12-14T21:12:46;96102.91;;;14.90;100.00
34031;BME280;20319;28.466;-16.274;2023-12-14T21:15:12;95825.72;;;13.22;100.00
34031;BME280;20319;28.466;-16.274;2023-12-14T21:17:38;96053.84;;;14.67;100.00
34031;BME280;20319;28.466;-16.274;2023-12-14T21:20:03;96138.75;;;15.10;100.00
34031;BME280;20319;28.466;-16.274;2023-12-14T21:22:29;95796.94;;;13.13;100.00
34031;BME280;20319;28.466;-16.274;2023-12-14T21:24:55;96091.84;;;15.01;100.00
34031;BME280;20319;28.466;-16.274;2023-12-14T21:27:29;95818.72;;;13.36;100.00
34031;BME280;20319;28.466;-16.274;2023-12-14T21:30:19;95961.41;;;14.27;100.00
34031;BME280;20319;28.466;-16.274;2023-12-14T21:32:46;96159.22;;;15.56;100.00
34031;BME280;20319;28.466;-16.274;2023-12-14T21:35:12;96114.72;;;15.24;100.00
34031;BME280;20319;28.466;-16.274;2023-12-14T21:37:39;95930.44;;;14.19;100.00
